sensor_id;sensor_type;location;lat;lon;timestamp;temperature;humidity
10964;DHT22;5534;48.784;9.190;2023-04-15T00:01:26;10.00;99.90
10964;DHT22;5534;48.784;9.190;2023-04-15T00:03:53;9.90;99.90
10964;DHT22;5534;48.784;9.190;2023-04-15T00:06:19;9.90;99.90
10964;DHT22;5534;48.784;9.190;2023-04-15T00:08:46;10.10;99.90
10964;DHT22;5534;48.784;9.190;2023-04-15T00:11:13;10.10;99.90
10964;DHT22;5534;48.784;9.190;2023-04-15T00:13:38;10.10;99.90
10964;DHT22;5534;48.784;9.190;2023-04-15T00:16:05;10.10;99.90
10964;DHT22;5534;48.784;9.190;2023-04-15T00:18:33;10.10;99.90
10964;DHT22;5534;48.784;9.190;2023-04-15T00:20:59;10.10;99.90
10964;DHT22;5534;48.784;9.190;2023-04-15T00:23:25;10.00;99.90
10964;DHT22;5534;48.784;9.190;2023-04-15T00:25:51;9.60;99.90
10964;DHT22;5534;48.784;9.190;2023-04-15T00:28:17;9.60;99.90
10964;DHT22;5534;48.784;9.190;2023-04-15T00:30:43;9.20;99.90
10964;DHT22;5534;48.784;9.190;2023-04-15T00:33:12;9.30;99.90
10964;DHT22;5534;48.784;9.190;2023-04-15T00:35:38;9.40;99.90
10964;DHT22;5534;48.784;9.190;2023-04-15T00:38:05;9.70;99.90
10964;DHT22;5534;48.784;9.190;2023-04-15T00:40:32;9.70;99.90
10964;DHT22;5534;48.784;9.190;2023-04-15T00:42:59;9.50;99.90
10964;DHT22;5534;48.784;9.190;2023-04-15T00:45:25;9.40;99.90
10964;DHT22;5534;48.784;9.190;2023-04-15T00:47:53;9.20;99.90
10964;DHT22;5534;48.784;9.190;2023-04-15T00:50:18;9.10;99.90
10964;DHT22;5534;48.784;9.190;2023-04-15T00:52:44;8.70;99.90
10964;DHT22;5534;48.784;9.190;2023-04-15T00:55:10;8.60;99.90
10964;DHT22;5534;48.784;9.190;2023-04-15T00:57:37;8.70;99.90
10964;DHT22;5534;48.784;9.190;2023-04-15T01:00:04;8.80;99.90
10964;DHT22;5534;48.784;9.190;2023-04-15T01:02:33;9.00;99.90
10964;DHT22;5534;48.784;9.190;2023-04-15T01:04:59;9.30;99.90
10964;DHT22;5534;48.784;9.190;2023-04-15T01:07:25;9.50;99.90
10964;DHT22;5534;48.784;9.190;2023-04-15T01:09:51;9.50;99.90
10964;DHT22;5534;48.784;9.190;2023-04-15T01:12:19;9.60;99.90
10964;DHT22;5534;48.784;9.190;2023-04-15T01:14:45;9.60;99.90
10964;DHT22;5534;48.784;9.190;2023-04-15T01:17:11;9.60;99.90
10964;DHT22;5534;48.784;9.190;2023-04-15T01:19:37;9.70;99.90
10964;DHT22;5534;48.784;9.190;2023-04-15T01:22:04;9.70;99.90
10964;DHT22;5534;48.784;9.190;2023-04-15T01:24:31;9.70;99.90
10964;DHT22;5534;48.784;9.190;2023-04-15T01:26:57;9.70;99.90
10964;DHT22;5534;48.784;9.190;2023-04-15T01:29:24;9.20;99.90
10964;DHT22;5534;48.784;9.190;2023-04-15T01:31:54;9.40;99.90
10964;DHT22;5534;48.784;9.190;2023-04-15T01:34:21;9.40;99.90
10964;DHT22;5534;48.784;9.190;2023-04-15T01:36:47;9.30;99.90
10964;DHT22;5534;48.784;9.190;2023-04-15T01:39:13;9.30;99.90
10964;DHT22;5534;48.784;9.190;2023-04-15T01:41:39;9.30;99.90
10964;DHT22;5534;48.784;9.190;2023-04-15T01:44:07;9.50;99.90
10964;DHT22;5534;48.784;9.190;2023-04-15T01:46:33;9.60;99.90
10964;DHT22;5534;48.784;9.190;2023-04-15T01:48:59;9.50;99.90
10964;DHT22;5534;48.784;9.190;2023-04-15T01:51:25;9.60;99.90
10964;DHT22;5534;48.784;9.190;2023-04-15T01:53:52;9.30;99.90
10964;DHT22;5534;48.784;9.190;2023-04-15T01:56:18;9.20;99.90
10964;DHT22;5534;48.784;9.190;2023-04-15T01:58:43;9.10;99.90
10964;DHT22;5534;48.784;9.190;2023-04-15T02:01:09;9.20;99.90
10964;DHT22;5534;48.784;9.190;2023-04-15T02:03:36;9.30;99.90
10964;DHT22;5534;48.784;9.190;2023-04-15T02:06:03;9.20;99.90
10964;DHT22;5534;48.784;9.190;2023-04-15T02:08:29;9.10;99.90
10964;DHT22;5534;48.784;9.190;2023-04-15T02:10:55;9.30;99.90
10964;DHT22;5534;48.784;9.190;2023-04-15T02:13:20;9.30;99.90
10964;DHT22;5534;48.784;9.190;2023-04-15T02:15:47;9.20;99.90
10964;DHT22;5534;48.784;9.190;2023-04-15T02:18:15;9.20;99.90
10964;DHT22;5534;48.784;9.190;2023-04-15T02:20:41;9.20;99.90
10964;DHT22;5534;48.784;9.190;2023-04-15T02:23:08;9.20;99.90
10964;DHT22;5534;48.784;9.190;2023-04-15T02:25:37;9.20;99.90
10964;DHT22;5534;48.784;9.190;2023-04-15T02:28:06;9.20;99.90
10964;DHT22;5534;48.784;9.190;2023-04-15T02:30:32;9.00;99.90
10964;DHT22;5534;48.784;9.190;2023-04-15T02:32:59;8.80;99.90
10964;DHT22;5534;48.784;9.190;2023-04-15T02:35:25;8.90;99.90
10964;DHT22;5534;48.784;9.190;2023-04-15T02:37:51;9.00;99.90
10964;DHT22;5534;48.784;9.190;2023-04-15T02:40:19;9.00;99.90
10964;DHT22;5534;48.784;9.190;2023-04-15T02:42:44;9.10;99.90
10964;DHT22;5534;48.784;9.190;2023-04-15T02:45:11;9.00;99.90
10964;DHT22;5534;48.784;9.190;2023-04-15T02:47:38;9.10;99.90
10964;DHT22;5534;48.784;9.190;2023-04-15T02:50:08;9.10;99.90
10964;DHT22;5534;48.784;9.190;2023-04-15T02:52:34;9.10;99.90
10964;DHT22;5534;48.784;9.190;2023-04-15T02:55:00;9.10;99.90
10964;DHT22;5534;48.784;9.190;2023-04-15T02:57:27;9.10;99.90
10964;DHT22;5534;48.784;9.190;2023-04-15T02:59:54;9.10;99.90
10964;DHT22;5534;48.784;9.190;2023-04-15T03:02:19;9.10;99.90
10964;DHT22;5534;48.784;9.190;2023-04-15T03:04:45;9.10;99.90
10964;DHT22;5534;48.784;9.190;2023-04-15T03:07:11;9.10;99.90
10964;DHT22;5534;48.784;9.190;2023-04-15T03:09:37;9.00;99.90
10964;DHT22;5534;48.784;9.190;2023-04-15T03:12:04;8.80;99.90
10964;DHT22;5534;48.784;9.190;2023-04-15T03:14:30;8.60;99.90
10964;DHT22;5534;48.784;9.190;2023-04-15T03:16:56;8.60;99.90
10964;DHT22;5534;48.784;9.190;2023-04-15T03:19:24;8.80;99.90
10964;DHT22;5534;48.784;9.190;2023-04-15T03:21:50;8.70;99.90
10964;DHT22;5534;48.784;9.190;2023-04-15T03:24:17;8.70;99.90
10964;DHT22;5534;48.784;9.190;2023-04-15T03:26:42;8.80;99.90
10964;DHT22;5534;48.784;9.190;2023-04-15T03:29:08;8.70;99.90
10964;DHT22;5534;48.784;9.190;2023-04-15T03:31:34;8.80;99.90
10964;DHT22;5534;48.784;9.190;2023-04-15T03:34:00;8.90;99.90
10964;DHT22;5534;48.784;9.190;2023-04-15T03:36:27;8.90;99.90
10964;DHT22;5534;48.784;9.190;2023-04-15T03:38:53;8.70;99.90
10964;DHT22;5534;48.784;9.190;2023-04-15T03:41:20;8.70;99.90
10964;DHT22;5534;48.784;9.190;2023-04-15T03:43:46;8.80;99.90
10964;DHT22;5534;48.784;9.190;2023-04-15T03:46:11;8.80;99.90
10964;DHT22;5534;48.784;9.190;2023-04-15T03:48:37;8.80;99.90
10964;DHT22;5534;48.784;9.190;2023-04-15T03:51:03;8.80;99.90
10964;DHT22;5534;48.784;9.190;2023-04-15T03:53:29;8.60;99.90
10964;DHT22;5534;48.784;9.190;2023-04-15T03:55:54;8.50;99.90
10964;DHT22;5534;48.784;9.190;2023-04-15T03:58:20;8.50;99.90
10964;DHT22;5534;48.784;9.190;2023-04-15T04:00:46;8.40;99.90
10964;DHT22;5534;48.784;9.190;2023-04-15T04:03:12;8.50;99.90
10964;DHT22;5534;48.784;9.190;2023-04-15T04:05:38;8.60;99.90
10964;DHT22;5534;48.784;9.190;2023-04-15T04:08:06;8.60;99.90
10964;DHT22;5534;48.784;9.190;2023-04-15T04:10:32;8.40;99.90
10964;DHT22;5534;48.784;9.190;2023-04-15T04:12:57;8.00;99.90
10964;DHT22;5534;48.784;9.190;2023-04-15T04:15:23;8.00;99.90
10964;DHT22;5534;48.784;9.190;2023-04-15T04:17:49;8.20;99.90
10964;DHT22;5534;48.784;9.190;2023-04-15T04:20:14;8.40;99.90
10964;DHT22;5534;48.784;9.190;2023-04-15T04:22:40;8.50;99.90
10964;DHT22;5534;48.784;9.190;2023-04-15T04:25:07;8.50;99.90
10964;DHT22;5534;48.784;9.190;2023-04-15T04:27:33;8.50;99.90
10964;DHT22;5534;48.784;9.190;2023-04-15T04:30:00;8.50;99.90
10964;DHT22;5534;48.784;9.190;2023-04-15T04:32:26;8.40;99.90
10964;DHT22;5534;48.784;9.190;2023-04-15T04:34:52;8.40;99.90
10964;DHT22;5534;48.784;9.190;2023-04-15T04:37:17;8.30;99.90
10964;DHT22;5534;48.784;9.190;2023-04-15T04:39:43;8.10;99.90
10964;DHT22;5534;48.784;9.190;2023-04-15T04:42:09;8.30;99.90
10964;DHT22;5534;48.784;9.190;2023-04-15T04:44:34;8.30;99.90
10964;DHT22;5534;48.784;9.190;2023-04-15T04:47:00;8.30;99.90
10964;DHT22;5534;48.784;9.190;2023-04-15T04:49:26;8.30;99.90
10964;DHT22;5534;48.784;9.190;2023-04-15T04:51:52;7.90;99.90
10964;DHT22;5534;48.784;9.190;2023-04-15T04:54:18;8.10;99.90
10964;DHT22;5534;48.784;9.190;2023-04-15T04:56:43;8.10;99.90
10964;DHT22;5534;48.784;9.190;2023-04-15T04:59:09;8.20;99.90
10964;DHT22;5534;48.784;9.190;2023-04-15T05:01:35;8.30;99.90
10964;DHT22;5534;48.784;9.190;2023-04-15T05:04:01;8.20;99.90
10964;DHT22;5534;48.784;9.190;2023-04-15T05:06:26;8.30;99.90
10964;DHT22;5534;48.784;9.190;2023-04-15T05:08:54;8.30;99.90
10964;DHT22;5534;48.784;9.190;2023-04-15T05:11:21;8.30;99.90
10964;DHT22;5534;48.784;9.190;2023-04-15T05:13:47;8.30;99.90
10964;DHT22;5534;48.784;9.190;2023-04-15T05:16:12;8.30;99.90
10964;DHT22;5534;48.784;9.190;2023-04-15T05:18:38;8.20;99.90
10964;DHT22;5534;48.784;9.190;2023-04-15T05:21:04;8.40;99.90
10964;DHT22;5534;48.784;9.190;2023-04-15T05:23:30;8.40;99.90
10964;DHT22;5534;48.784;9.190;2023-04-15T05:25:56;8.40;99.90
10964;DHT22;5534;48.784;9.190;2023-04-15T05:28:22;8.50;99.90
10964;DHT22;5534;48.784;9.190;2023-04-15T05:30:47;8.50;99.90
10964;DHT22;5534;48.784;9.190;2023-04-15T05:33:13;8.60;99.90
10964;DHT22;5534;48.784;9.190;2023-04-15T05:35:39;8.30;99.90
10964;DHT22;5534;48.784;9.190;2023-04-15T05:38:05;8.30;99.90
10964;DHT22;5534;48.784;9.190;2023-04-15T05:40:30;8.50;99.90
10964;DHT22;5534;48.784;9.190;2023-04-15T05:42:56;8.60;99.90
10964;DHT22;5534;48.784;9.190;2023-04-15T05:45:22;8.60;99.90
10964;DHT22;5534;48.784;9.190;2023-04-15T05:47:48;8.60;99.90
10964;DHT22;5534;48.784;9.190;2023-04-15T05:50:19;8.70;99.90
10964;DHT22;5534;48.784;9.190;2023-04-15T05:52:46;8.70;99.90
10964;DHT22;5534;48.784;9.190;2023-04-15T05:55:12;8.80;99.90
10964;DHT22;5534;48.784;9.190;2023-04-15T05:57:38;8.90;99.90
10964;DHT22;5534;48.784;9.190;2023-04-15T06:00:05;8.90;99.90
10964;DHT22;5534;48.784;9.190;2023-04-15T06:02:31;8.90;99.90
10964;DHT22;5534;48.784;9.190;2023-04-15T06:04:57;9.00;99.90
10964;DHT22;5534;48.784;9.190;2023-04-15T06:07:23;9.00;99.90
10964;DHT22;5534;48.784;9.190;2023-04-15T06:09:48;9.00;99.90
10964;DHT22;5534;48.784;9.190;2023-04-15T06:12:15;8.90;99.90
10964;DHT22;5534;48.784;9.190;2023-04-15T06:14:41;9.00;99.90
10964;DHT22;5534;48.784;9.190;2023-04-15T06:17:07;8.90;99.90
10964;DHT22;5534;48.784;9.190;2023-04-15T06:19:34;9.00;99.90
10964;DHT22;5534;48.784;9.190;2023-04-15T06:22:01;9.20;99.90
10964;DHT22;5534;48.784;9.190;2023-04-15T06:24:27;9.20;99.90
10964;DHT22;5534;48.784;9.190;2023-04-15T06:26:52;9.20;99.90
10964;DHT22;5534;48.784;9.190;2023-04-15T06:29:18;9.20;99.90
10964;DHT22;5534;48.784;9.190;2023-04-15T06:31:45;9.20;99.90
10964;DHT22;5534;48.784;9.190;2023-04-15T06:34:11;9.30;99.90
10964;DHT22;5534;48.784;9.190;2023-04-15T06:36:37;9.40;99.90
10964;DHT22;5534;48.784;9.190;2023-04-15T06:39:03;9.40;99.90
10964;DHT22;5534;48.784;9.190;2023-04-15T06:41:28;9.30;99.90
10964;DHT22;5534;48.784;9.190;2023-04-15T06:43:54;9.40;99.90
10964;DHT22;5534;48.784;9.190;2023-04-15T06:46:20;9.50;99.90
10964;DHT22;5534;48.784;9.190;2023-04-15T06:48:46;9.60;99.90
10964;DHT22;5534;48.784;9.190;2023-04-15T06:51:12;9.60;99.90
10964;DHT22;5534;48.784;9.190;2023-04-15T06:53:37;9.70;99.90
10964;DHT22;5534;48.784;9.190;2023-04-15T06:56:07;9.80;99.90
10964;DHT22;5534;48.784;9.190;2023-04-15T06:58:34;9.80;99.90
10964;DHT22;5534;48.784;9.190;2023-04-15T07:01:00;9.90;99.90
10964;DHT22;5534;48.784;9.190;2023-04-15T07:03:27;10.10;99.90
10964;DHT22;5534;48.784;9.190;2023-04-15T07:05:53;10.30;99.90
10964;DHT22;5534;48.784;9.190;2023-04-15T07:08:20;10.40;99.90
10964;DHT22;5534;48.784;9.190;2023-04-15T07:10:46;10.50;99.90
10964;DHT22;5534;48.784;9.190;2023-04-15T07:13:12;10.70;99.90
10964;DHT22;5534;48.784;9.190;2023-04-15T07:15:38;10.90;99.90
10964;DHT22;5534;48.784;9.190;2023-04-15T07:18:04;11.40;99.90
10964;DHT22;5534;48.784;9.190;2023-04-15T07:20:29;12.00;99.90
10964;DHT22;5534;48.784;9.190;2023-04-15T07:22:56;12.50;99.90
10964;DHT22;5534;48.784;9.190;2023-04-15T07:25:22;12.80;99.90
10964;DHT22;5534;48.784;9.190;2023-04-15T07:27:47;12.80;99.90
10964;DHT22;5534;48.784;9.190;2023-04-15T07:30:13;12.60;99.90
10964;DHT22;5534;48.784;9.190;2023-04-15T07:32:39;12.40;99.90
10964;DHT22;5534;48.784;9.190;2023-04-15T07:35:05;12.10;99.90
10964;DHT22;5534;48.784;9.190;2023-04-15T07:37:32;11.80;99.90
10964;DHT22;5534;48.784;9.190;2023-04-15T07:39:58;11.60;99.90
10964;DHT22;5534;48.784;9.190;2023-04-15T07:42:24;11.40;99.90
10964;DHT22;5534;48.784;9.190;2023-04-15T07:44:52;11.30;99.90
10964;DHT22;5534;48.784;9.190;2023-04-15T07:47:18;11.20;99.90
10964;DHT22;5534;48.784;9.190;2023-04-15T07:49:43;11.30;99.90
10964;DHT22;5534;48.784;9.190;2023-04-15T07:52:10;11.50;99.90
10964;DHT22;5534;48.784;9.190;2023-04-15T07:54:35;11.80;99.90
10964;DHT22;5534;48.784;9.190;2023-04-15T07:57:01;12.20;99.90
10964;DHT22;5534;48.784;9.190;2023-04-15T07:59:28;12.30;99.90
10964;DHT22;5534;48.784;9.190;2023-04-15T08:01:55;12.10;99.90
10964;DHT22;5534;48.784;9.190;2023-04-15T08:04:21;12.30;99.90
10964;DHT22;5534;48.784;9.190;2023-04-15T08:06:47;12.60;99.90
10964;DHT22;5534;48.784;9.190;2023-04-15T08:09:15;12.90;99.90
10964;DHT22;5534;48.784;9.190;2023-04-15T08:11:42;12.80;99.90
10964;DHT22;5534;48.784;9.190;2023-04-15T08:14:08;12.90;99.90
10964;DHT22;5534;48.784;9.190;2023-04-15T08:16:34;12.70;99.90
10964;DHT22;5534;48.784;9.190;2023-04-15T08:18:59;12.70;99.90
10964;DHT22;5534;48.784;9.190;2023-04-15T08:21:25;12.70;99.90
10964;DHT22;5534;48.784;9.190;2023-04-15T08:23:52;12.60;99.90
10964;DHT22;5534;48.784;9.190;2023-04-15T08:26:19;12.60;99.90
10964;DHT22;5534;48.784;9.190;2023-04-15T08:28:46;12.60;99.90
10964;DHT22;5534;48.784;9.190;2023-04-15T08:31:17;13.00;99.90
10964;DHT22;5534;48.784;9.190;2023-04-15T08:33:44;13.20;99.90
10964;DHT22;5534;48.784;9.190;2023-04-15T08:36:10;13.30;99.90
10964;DHT22;5534;48.784;9.190;2023-04-15T08:38:36;13.60;99.90
10964;DHT22;5534;48.784;9.190;2023-04-15T08:41:08;13.80;99.90
10964;DHT22;5534;48.784;9.190;2023-04-15T08:43:42;13.70;99.90
10964;DHT22;5534;48.784;9.190;2023-04-15T08:46:11;13.50;99.90
10964;DHT22;5534;48.784;9.190;2023-04-15T08:48:37;13.60;99.90
10964;DHT22;5534;48.784;9.190;2023-04-15T08:51:05;13.70;99.90
10964;DHT22;5534;48.784;9.190;2023-04-15T08:53:32;13.70;99.90
10964;DHT22;5534;48.784;9.190;2023-04-15T08:55:59;13.80;99.90
10964;DHT22;5534;48.784;9.190;2023-04-15T08:58:27;14.20;99.90
10964;DHT22;5534;48.784;9.190;2023-04-15T09:00:56;14.30;99.90
10964;DHT22;5534;48.784;9.190;2023-04-15T09:03:22;14.10;99.90
10964;DHT22;5534;48.784;9.190;2023-04-15T09:05:49;13.90;99.90
10964;DHT22;5534;48.784;9.190;2023-04-15T09:08:18;14.00;99.90
10964;DHT22;5534;48.784;9.190;2023-04-15T09:10:44;14.20;99.90
10964;DHT22;5534;48.784;9.190;2023-04-15T09:13:10;14.40;99.90
10964;DHT22;5534;48.784;9.190;2023-04-15T09:15:39;14.30;99.90
10964;DHT22;5534;48.784;9.190;2023-04-15T09:18:05;14.30;99.90
10964;DHT22;5534;48.784;9.190;2023-04-15T09:20:39;14.30;99.90
10964;DHT22;5534;48.784;9.190;2023-04-15T09:23:14;14.40;99.90
10964;DHT22;5534;48.784;9.190;2023-04-15T09:25:40;14.50;99.90
10964;DHT22;5534;48.784;9.190;2023-04-15T09:28:09;14.50;99.90
10964;DHT22;5534;48.784;9.190;2023-04-15T09:30:36;14.50;99.90
10964;DHT22;5534;48.784;9.190;2023-04-15T09:33:03;14.60;99.90
10964;DHT22;5534;48.784;9.190;2023-04-15T09:35:33;14.70;99.90
10964;DHT22;5534;48.784;9.190;2023-04-15T09:38:06;14.70;99.90
10964;DHT22;5534;48.784;9.190;2023-04-15T09:40:40;14.60;99.90
10964;DHT22;5534;48.784;9.190;2023-04-15T09:43:08;14.80;99.90
10964;DHT22;5534;48.784;9.190;2023-04-15T09:45:35;14.80;99.90
10964;DHT22;5534;48.784;9.190;2023-04-15T09:48:33;14.80;99.90
10964;DHT22;5534;48.784;9.190;2023-04-15T09:51:00;14.70;99.90
10964;DHT22;5534;48.784;9.190;2023-04-15T09:53:33;14.70;99.90
10964;DHT22;5534;48.784;9.190;2023-04-15T09:55:59;14.70;99.90
10964;DHT22;5534;48.784;9.190;2023-04-15T09:58:32;14.70;99.90
10964;DHT22;5534;48.784;9.190;2023-04-15T10:01:01;14.50;99.90
10964;DHT22;5534;48.784;9.190;2023-04-15T10:03:29;14.60;99.90
10964;DHT22;5534;48.784;9.190;2023-04-15T10:05:57;14.60;99.90
10964;DHT22;5534;48.784;9.190;2023-04-15T10:08:27;14.70;99.90
10964;DHT22;5534;48.784;9.190;2023-04-15T10:10:53;14.60;99.90
10964;DHT22;5534;48.784;9.190;2023-04-15T10:13:22;14.50;99.90
10964;DHT22;5534;48.784;9.190;2023-04-15T10:15:57;14.70;99.90
10964;DHT22;5534;48.784;9.190;2023-04-15T10:18:26;14.70;99.90
10964;DHT22;5534;48.784;9.190;2023-04-15T10:20:53;14.70;99.90
10964;DHT22;5534;48.784;9.190;2023-04-15T10:23:21;14.60;99.90
10964;DHT22;5534;48.784;9.190;2023-04-15T10:25:48;14.50;99.90
10964;DHT22;5534;48.784;9.190;2023-04-15T10:28:16;14.50;99.90
10964;DHT22;5534;48.784;9.190;2023-04-15T10:30:42;14.70;99.90
10964;DHT22;5534;48.784;9.190;2023-04-15T10:33:09;14.70;99.90
10964;DHT22;5534;48.784;9.190;2023-04-15T10:35:35;14.70;99.90
10964;DHT22;5534;48.784;9.190;2023-04-15T10:38:02;14.80;99.90
10964;DHT22;5534;48.784;9.190;2023-04-15T10:40:49;14.60;99.90
10964;DHT22;5534;48.784;9.190;2023-04-15T10:43:24;14.80;99.90
10964;DHT22;5534;48.784;9.190;2023-04-15T10:45:53;14.80;99.90
10964;DHT22;5534;48.784;9.190;2023-04-15T10:48:19;15.00;99.90
10964;DHT22;5534;48.784;9.190;2023-04-15T10:50:55;15.00;99.90
10964;DHT22;5534;48.784;9.190;2023-04-15T10:53:28;15.00;99.90
10964;DHT22;5534;48.784;9.190;2023-04-15T10:55:56;15.00;99.90
10964;DHT22;5534;48.784;9.190;2023-04-15T10:58:25;15.00;99.90
10964;DHT22;5534;48.784;9.190;2023-04-15T11:01:05;14.90;99.90
10964;DHT22;5534;48.784;9.190;2023-04-15T11:03:37;14.80;99.90
10964;DHT22;5534;48.784;9.190;2023-04-15T11:06:04;14.80;99.90
10964;DHT22;5534;48.784;9.190;2023-04-15T11:08:54;14.80;99.90
10964;DHT22;5534;48.784;9.190;2023-04-15T11:11:21;14.80;99.90
10964;DHT22;5534;48.784;9.190;2023-04-15T11:13:49;14.80;99.90
10964;DHT22;5534;48.784;9.190;2023-04-15T11:16:15;14.90;99.90
10964;DHT22;5534;48.784;9.190;2023-04-15T11:18:41;15.00;99.90
10964;DHT22;5534;48.784;9.190;2023-04-15T11:21:07;15.00;99.90
10964;DHT22;5534;48.784;9.190;2023-04-15T11:23:39;15.00;99.90
10964;DHT22;5534;48.784;9.190;2023-04-15T11:26:09;15.20;99.90
10964;DHT22;5534;48.784;9.190;2023-04-15T11:28:41;15.20;99.90
10964;DHT22;5534;48.784;9.190;2023-04-15T11:31:13;15.10;99.90
10964;DHT22;5534;48.784;9.190;2023-04-15T11:34:05;15.00;99.40
10964;DHT22;5534;48.784;9.190;2023-04-15T11:36:31;15.00;99.30
10964;DHT22;5534;48.784;9.190;2023-04-15T11:38:58;15.00;98.40
10964;DHT22;5534;48.784;9.190;2023-04-15T11:41:24;14.90;98.70
10964;DHT22;5534;48.784;9.190;2023-04-15T11:43:50;14.90;99.20
10964;DHT22;5534;48.784;9.190;2023-04-15T11:46:17;14.90;99.70
10964;DHT22;5534;48.784;9.190;2023-04-15T11:48:44;14.70;99.90
10964;DHT22;5534;48.784;9.190;2023-04-15T11:51:12;14.40;99.90
10964;DHT22;5534;48.784;9.190;2023-04-15T11:53:43;14.40;99.90
10964;DHT22;5534;48.784;9.190;2023-04-15T11:56:30;14.40;99.90
10964;DHT22;5534;48.784;9.190;2023-04-15T11:58:57;14.60;99.90
10964;DHT22;5534;48.784;9.190;2023-04-15T12:01:37;14.60;99.90
10964;DHT22;5534;48.784;9.190;2023-04-15T12:04:15;14.70;99.90
10964;DHT22;5534;48.784;9.190;2023-04-15T12:06:44;14.80;99.90
10964;DHT22;5534;48.784;9.190;2023-04-15T12:09:10;14.90;99.90
10964;DHT22;5534;48.784;9.190;2023-04-15T12:11:49;15.00;99.90
10964;DHT22;5534;48.784;9.190;2023-04-15T12:16:59;14.90;99.90
10964;DHT22;5534;48.784;9.190;2023-04-15T12:19:34;14.90;99.90
10964;DHT22;5534;48.784;9.190;2023-04-15T12:22:04;14.90;99.90
10964;DHT22;5534;48.784;9.190;2023-04-15T12:24:35;14.90;99.90
10964;DHT22;5534;48.784;9.190;2023-04-15T12:27:06;14.90;99.90
10964;DHT22;5534;48.784;9.190;2023-04-15T12:29:35;14.90;99.90
10964;DHT22;5534;48.784;9.190;2023-04-15T12:32:06;14.80;99.90
10964;DHT22;5534;48.784;9.190;2023-04-15T12:34:37;14.10;99.90
10964;DHT22;5534;48.784;9.190;2023-04-15T12:37:05;13.70;99.90
10964;DHT22;5534;48.784;9.190;2023-04-15T12:39:35;13.40;99.90
10964;DHT22;5534;48.784;9.190;2023-04-15T12:42:02;13.20;99.90
10964;DHT22;5534;48.784;9.190;2023-04-15T12:44:29;12.80;99.90
10964;DHT22;5534;48.784;9.190;2023-04-15T12:46:55;12.60;99.90
10964;DHT22;5534;48.784;9.190;2023-04-15T12:49:22;12.50;99.90
10964;DHT22;5534;48.784;9.190;2023-04-15T12:51:49;12.20;99.90
10964;DHT22;5534;48.784;9.190;2023-04-15T12:54:16;12.10;99.90
10964;DHT22;5534;48.784;9.190;2023-04-15T12:56:43;12.10;99.90
10964;DHT22;5534;48.784;9.190;2023-04-15T12:59:10;12.30;99.90
10964;DHT22;5534;48.784;9.190;2023-04-15T13:01:37;12.50;99.90
10964;DHT22;5534;48.784;9.190;2023-04-15T13:04:04;12.50;99.90
10964;DHT22;5534;48.784;9.190;2023-04-15T13:06:30;12.60;99.90
10964;DHT22;5534;48.784;9.190;2023-04-15T13:09:01;12.60;99.90
10964;DHT22;5534;48.784;9.190;2023-04-15T13:11:28;12.60;99.90
10964;DHT22;5534;48.784;9.190;2023-04-15T13:14:08;12.70;99.90
10964;DHT22;5534;48.784;9.190;2023-04-15T13:16:34;12.80;99.90
10964;DHT22;5534;48.784;9.190;2023-04-15T13:19:02;13.00;99.90
10964;DHT22;5534;48.784;9.190;2023-04-15T13:21:28;13.20;99.90
10964;DHT22;5534;48.784;9.190;2023-04-15T13:23:54;13.20;99.90
10964;DHT22;5534;48.784;9.190;2023-04-15T13:26:20;13.10;99.90
10964;DHT22;5534;48.784;9.190;2023-04-15T13:28:46;13.20;99.90
10964;DHT22;5534;48.784;9.190;2023-04-15T13:31:12;13.30;99.90
10964;DHT22;5534;48.784;9.190;2023-04-15T13:33:38;13.20;99.90
10964;DHT22;5534;48.784;9.190;2023-04-15T13:36:05;13.40;99.90
10964;DHT22;5534;48.784;9.190;2023-04-15T13:38:31;13.60;99.90
10964;DHT22;5534;48.784;9.190;2023-04-15T13:40:58;13.70;99.90
10964;DHT22;5534;48.784;9.190;2023-04-15T13:43:23;13.70;99.90
10964;DHT22;5534;48.784;9.190;2023-04-15T13:45:49;13.70;99.90
10964;DHT22;5534;48.784;9.190;2023-04-15T13:48:16;13.80;99.90
10964;DHT22;5534;48.784;9.190;2023-04-15T13:50:41;13.80;99.90
10964;DHT22;5534;48.784;9.190;2023-04-15T13:53:10;13.90;99.90
10964;DHT22;5534;48.784;9.190;2023-04-15T13:55:36;13.90;99.90
10964;DHT22;5534;48.784;9.190;2023-04-15T13:58:06;14.00;99.90
10964;DHT22;5534;48.784;9.190;2023-04-15T14:00:32;14.00;99.90
10964;DHT22;5534;48.784;9.190;2023-04-15T14:02:58;13.70;99.90
10964;DHT22;5534;48.784;9.190;2023-04-15T14:05:24;13.70;99.90
10964;DHT22;5534;48.784;9.190;2023-04-15T14:07:50;13.70;99.90
10964;DHT22;5534;48.784;9.190;2023-04-15T14:10:15;13.60;99.90
10964;DHT22;5534;48.784;9.190;2023-04-15T14:12:41;13.60;99.90
10964;DHT22;5534;48.784;9.190;2023-04-15T14:15:07;13.60;99.90
10964;DHT22;5534;48.784;9.190;2023-04-15T14:17:33;13.70;99.90
10964;DHT22;5534;48.784;9.190;2023-04-15T14:20:00;13.80;99.90
10964;DHT22;5534;48.784;9.190;2023-04-15T14:22:26;13.80;99.90
10964;DHT22;5534;48.784;9.190;2023-04-15T14:24:52;13.90;99.90
10964;DHT22;5534;48.784;9.190;2023-04-15T14:27:19;14.00;99.50
10964;DHT22;5534;48.784;9.190;2023-04-15T14:29:45;14.10;99.60
10964;DHT22;5534;48.784;9.190;2023-04-15T14:32:10;14.10;99.60
10964;DHT22;5534;48.784;9.190;2023-04-15T14:34:37;14.00;99.10
10964;DHT22;5534;48.784;9.190;2023-04-15T14:37:02;13.80;99.30
10964;DHT22;5534;48.784;9.190;2023-04-15T14:39:28;13.70;99.10
10964;DHT22;5534;48.784;9.190;2023-04-15T14:41:54;13.60;99.70
10964;DHT22;5534;48.784;9.190;2023-04-15T14:44:21;13.50;99.70
10964;DHT22;5534;48.784;9.190;2023-04-15T14:46:47;13.60;99.70
10964;DHT22;5534;48.784;9.190;2023-04-15T14:49:14;13.30;99.50
10964;DHT22;5534;48.784;9.190;2023-04-15T14:51:40;13.30;99.90
10964;DHT22;5534;48.784;9.190;2023-04-15T14:54:06;13.30;99.90
10964;DHT22;5534;48.784;9.190;2023-04-15T14:56:31;13.20;99.90
10964;DHT22;5534;48.784;9.190;2023-04-15T14:58:58;13.20;99.90
10964;DHT22;5534;48.784;9.190;2023-04-15T15:01:26;13.10;99.90
10964;DHT22;5534;48.784;9.190;2023-04-15T15:03:52;13.10;99.90
10964;DHT22;5534;48.784;9.190;2023-04-15T15:06:19;13.00;99.90
10964;DHT22;5534;48.784;9.190;2023-04-15T15:08:47;13.00;99.90
10964;DHT22;5534;48.784;9.190;2023-04-15T15:11:13;12.90;99.90
10964;DHT22;5534;48.784;9.190;2023-04-15T15:13:38;12.70;99.90
10964;DHT22;5534;48.784;9.190;2023-04-15T15:16:05;12.80;99.90
10964;DHT22;5534;48.784;9.190;2023-04-15T15:18:30;12.70;99.90
10964;DHT22;5534;48.784;9.190;2023-04-15T15:20:56;12.70;99.90
10964;DHT22;5534;48.784;9.190;2023-04-15T15:23:22;12.80;99.90
10964;DHT22;5534;48.784;9.190;2023-04-15T15:25:48;12.80;99.90
10964;DHT22;5534;48.784;9.190;2023-04-15T15:28:14;12.70;99.90
10964;DHT22;5534;48.784;9.190;2023-04-15T15:30:39;12.80;99.90
10964;DHT22;5534;48.784;9.190;2023-04-15T15:33:05;12.80;99.90
10964;DHT22;5534;48.784;9.190;2023-04-15T15:35:31;12.80;99.90
10964;DHT22;5534;48.784;9.190;2023-04-15T15:37:58;12.70;99.90
10964;DHT22;5534;48.784;9.190;2023-04-15T15:40:25;12.70;99.90
10964;DHT22;5534;48.784;9.190;2023-04-15T15:42:51;12.70;99.90
10964;DHT22;5534;48.784;9.190;2023-04-15T15:45:20;12.80;99.90
10964;DHT22;5534;48.784;9.190;2023-04-15T15:47:46;12.80;99.90
10964;DHT22;5534;48.784;9.190;2023-04-15T15:50:13;12.80;99.90
10964;DHT22;5534;48.784;9.190;2023-04-15T15:52:39;12.80;99.90
10964;DHT22;5534;48.784;9.190;2023-04-15T15:55:05;12.60;99.90